Time;durP1;ratioP1;P1;durP2;ratioP2;P2;SDS_P1;SDS_P2;PMS_P1;PMS_P2;Temp;Humidity;BMP_temperature;BMP_pressure;BME280_temperature;BME280_humidity;BME280_pressure;Samples;Min_cycle;Max_cycle;Signal;HPM_P1;HPM_P2
2021/05/04 00:01:05;;;;;;;5.20;2.90;;;10.10;59.10;;;;;;5074138;28;20640;-61
2021/05/04 00:03:31;;;;;;;2.53;2.40;;;10.10;59.00;;;;;;5074143;28;20175;-61
2021/05/04 00:05:57;;;;;;;2.87;2.67;;;10.10;59.20;;;;;;5074218;28;20681;-61
2021/05/04 00:08:22;;;;;;;3.00;2.80;;;10.10;58.90;;;;;;5073638;28;20167;-61
2021/05/04 00:10:48;;;;;;;3.30;3.10;;;10.10;58.90;;;;;;5074219;28;20193;-61
2021/05/04 00:13:13;;;;;;;3.03;2.70;;;10.10;59.10;;;;;;5073718;28;20190;-61
2021/05/04 00:15:39;;;;;;;2.73;2.63;;;10.10;59.00;;;;;;5074169;28;20171;-61
2021/05/04 00:18:04;;;;;;;2.40;2.20;;;10.10;59.30;;;;;;5073841;28;20227;-61
2021/05/04 00:20:30;;;;;;;2.80;2.60;;;10.10;59.20;;;;;;5073002;28;20266;-62
2021/05/04 00:22:55;;;;;;;2.80;2.60;;;10.10;58.90;;;;;;5073375;28;20640;-60
2021/05/04 00:25:21;;;;;;;4.97;3.40;;;10.10;59.00;;;;;;5073676;28;20175;-61
2021/05/04 00:27:46;;;;;;;2.73;2.53;;;10.10;58.90;;;;;;5067714;28;20248;-59
2021/05/04 00:30:12;;;;;;;3.00;2.80;;;10.10;58.90;;;;;;5072994;28;20170;-58
2021/05/04 00:32:38;;;;;;;2.90;2.70;;;10.10;58.90;;;;;;5073698;28;20589;-58
2021/05/04 00:35:04;;;;;;;3.03;2.53;;;10.20;58.70;;;;;;5073459;28;20408;-60
2021/05/04 00:37:30;;;;;;;2.67;2.57;;;10.20;59.10;;;;;;5073878;28;20171;-58
2021/05/04 00:39:56;;;;;;;2.40;2.30;;;10.10;59.00;;;;;;5073018;28;20421;-58
2021/05/04 00:42:24;;;;;;;2.10;2.00;;;10.20;59.40;;;;;;5073387;28;20191;-57
2021/05/04 00:44:50;;;;;;;2.50;2.30;;;10.20;59.10;;;;;;5073563;28;20179;-59
2021/05/04 00:47:15;;;;;;;2.17;2.07;;;10.30;58.90;;;;;;5073632;28;20442;-57
2021/05/04 00:49:41;;;;;;;2.90;2.20;;;10.20;59.00;;;;;;5072903;28;20167;-57
2021/05/04 00:52:06;;;;;;;2.40;2.20;;;10.20;59.10;;;;;;5073219;28;20209;-58
2021/05/04 00:54:32;;;;;;;2.60;2.40;;;10.20;58.90;;;;;;5073083;28;20206;-60
2021/05/04 00:56:58;;;;;;;2.40;2.20;;;10.20;58.80;;;;;;5073115;28;20163;-60
2021/05/04 00:59:25;;;;;;;2.37;2.27;;;10.20;58.60;;;;;;5072690;28;20842;-60
2021/05/04 01:01:54;;;;;;;2.30;2.20;;;10.20;59.00;;;;;;5073074;28;20425;-59
2021/05/04 01:04:21;;;;;;;1.90;1.80;;;10.10;59.00;;;;;;5072953;28;20500;-59
2021/05/04 01:06:47;;;;;;;2.43;2.23;;;10.20;58.70;;;;;;5073410;28;21039;-60
2021/05/04 01:09:17;;;;;;;2.00;1.90;;;10.20;59.00;;;;;;5072477;28;20409;-58
2021/05/04 01:11:44;;;;;;;2.47;2.33;;;10.10;59.00;;;;;;5072667;28;20789;-61
2021/05/04 01:14:11;;;;;;;2.60;2.43;;;10.20;58.90;;;;;;5072894;28;20410;-58
2021/05/04 01:16:48;;;;;;;3.03;2.53;;;10.20;58.80;;;;;;5072728;28;20924;-59
2021/05/04 01:19:14;;;;;;;2.27;2.13;;;10.20;58.70;;;;;;5072312;28;20432;-59
2021/05/04 01:21:40;;;;;;;1.60;1.60;;;10.10;58.60;;;;;;5072512;28;20424;-58
2021/05/04 01:24:06;;;;;;;5.33;2.30;;;10.10;58.90;;;;;;5072609;28;20245;-59
2021/05/04 01:26:31;;;;;;;2.20;2.10;;;10.10;58.50;;;;;;5072521;28;20171;-58
2021/05/04 01:28:57;;;;;;;1.70;1.60;;;10.20;58.20;;;;;;5072171;28;20461;-59
2021/05/04 01:31:22;;;;;;;1.87;1.63;;;10.20;57.90;;;;;;5072720;28;20191;-58
2021/05/04 01:33:48;;;;;;;1.83;1.70;;;10.10;57.30;;;;;;5072193;28;20178;-58
2021/05/04 01:36:13;;;;;;;2.50;1.53;;;10.10;57.30;;;;;;5072923;28;20190;-58
2021/05/04 01:38:39;;;;;;;2.37;2.27;;;10.10;57.20;;;;;;5072310;28;20160;-58
2021/05/04 01:41:05;;;;;;;2.20;1.70;;;10.10;56.90;;;;;;5072242;28;20288;-55
2021/05/04 01:43:30;;;;;;;3.60;1.90;;;10.10;56.70;;;;;;5072319;28;20170;-59
2021/05/04 01:45:56;;;;;;;2.30;2.20;;;10.10;56.20;;;;;;5072284;28;20516;-60
2021/05/04 01:48:21;;;;;;;2.30;1.90;;;10.10;55.70;;;;;;5071980;28;20199;-59
2021/05/04 01:50:47;;;;;;;2.20;1.80;;;10.10;55.50;;;;;;5072093;28;20531;-57
2021/05/04 01:53:12;;;;;;;1.57;1.47;;;10.10;55.10;;;;;;5072203;28;20252;-59
2021/05/04 01:55:38;;;;;;;1.80;1.70;;;10.10;55.40;;;;;;5072272;28;20194;-60
2021/05/04 01:58:03;;;;;;;1.90;1.73;;;10.10;54.30;;;;;;5071870;28;20170;-59
2021/05/04 02:00:29;;;;;;;1.80;1.70;;;10.10;55.00;;;;;;5071910;28;20222;-58
2021/05/04 02:02:55;;;;;;;1.50;1.40;;;10.00;56.20;;;;;;5071985;28;20177;-60
2021/05/04 02:05:21;;;;;;;1.93;1.80;;;9.80;57.70;;;;;;5072568;28;20179;-58
2021/05/04 02:07:46;;;;;;;1.77;1.63;;;9.50;59.50;;;;;;5071855;28;20175;-60
2021/05/04 02:10:12;;;;;;;2.00;1.90;;;9.30;63.90;;;;;;5071599;28;20690;-56
2021/05/04 02:12:42;;;;;;;2.77;2.40;;;9.00;65.10;;;;;;5071827;28;20653;-56
2021/05/04 02:15:08;;;;;;;3.07;1.73;;;8.70;68.30;;;;;;5072077;28;20401;-58
2021/05/04 02:17:33;;;;;;;8.83;1.93;;;8.70;68.40;;;;;;5071767;28;20748;-58
2021/05/04 02:19:59;;;;;;;2.23;1.77;;;8.60;70.30;;;;;;5071321;28;20431;-58
2021/05/04 02:22:25;;;;;;;2.70;1.67;;;8.40;73.40;;;;;;5071998;28;20197;-59
2021/05/04 02:24:50;;;;;;;2.20;2.00;;;8.30;76.30;;;;;;5071918;28;20452;-58
2021/05/04 02:27:16;;;;;;;6.70;2.20;;;8.10;82.70;;;;;;5071937;28;20536;-57
2021/05/04 02:29:42;;;;;;;2.10;2.00;;;7.90;86.50;;;;;;5071400;28;20660;-58
2021/05/04 02:32:07;;;;;;;2.43;1.63;;;7.70;89.40;;;;;;5071554;28;20445;-59
2021/05/04 02:34:33;;;;;;;2.47;2.27;;;7.50;91.30;;;;;;5071732;28;20167;-56
2021/05/04 02:36:59;;;;;;;1.83;1.73;;;7.20;92.90;;;;;;5071692;28;20171;-58
2021/05/04 02:39:24;;;;;;;2.87;2.40;;;7.10;93.80;;;;;;5071253;28;20967;-57
2021/05/04 02:41:50;;;;;;;2.20;2.00;;;7.00;95.10;;;;;;5071767;28;20583;-58
2021/05/04 02:44:15;;;;;;;3.17;2.13;;;6.80;96.10;;;;;;5072548;28;20163;-60
2021/05/04 02:46:41;;;;;;;1.97;1.87;;;6.70;97.00;;;;;;5075728;28;20561;-58
2021/05/04 02:49:07;;;;;;;2.27;2.10;;;6.70;98.10;;;;;;5075357;28;20198;-58
2021/05/04 02:51:32;;;;;;;2.10;2.00;;;6.70;98.70;;;;;;5075442;28;20199;-57
2021/05/04 02:53:58;;;;;;;2.60;2.40;;;6.60;98.00;;;;;;5075787;28;20166;-58
2021/05/04 02:56:24;;;;;;;3.10;2.00;;;6.50;98.70;;;;;;5075498;28;20168;-57
2021/05/04 02:58:50;;;;;;;2.30;2.20;;;6.40;98.70;;;;;;5075056;28;20181;-58
2021/05/04 03:01:15;;;;;;;2.20;2.00;;;6.30;99.60;;;;;;5075561;28;20504;-57
2021/05/04 03:03:41;;;;;;;2.10;2.00;;;6.30;99.90;;;;;;5075405;28;20221;-57
2021/05/04 03:06:06;;;;;;;2.00;1.90;;;6.30;99.90;;;;;;5075447;28;20182;-58
2021/05/04 03:08:32;;;;;;;2.33;2.20;;;6.30;99.90;;;;;;5074871;28;20171;-58
2021/05/04 03:10:58;;;;;;;2.20;2.03;;;6.20;99.90;;;;;;5075417;28;20188;-58
2021/05/04 03:13:29;;;;;;;2.47;2.30;;;6.20;99.90;;;;;;5075173;28;20191;-56
2021/05/04 03:15:55;;;;;;;5.20;2.40;;;6.10;99.90;;;;;;5075226;28;20171;-57
2021/05/04 03:18:21;;;;;;;2.67;2.50;;;6.10;99.90;;;;;;5074412;28;20448;-58
2021/05/04 03:20:48;;;;;;;3.40;2.47;;;6.10;99.90;;;;;;5075162;28;20833;-57
2021/05/04 03:23:15;;;;;;;2.33;2.20;;;6.10;99.90;;;;;;5075021;28;20258;-57
2021/05/04 03:25:42;;;;;;;1.83;1.73;;;6.10;99.90;;;;;;5075047;28;20412;-54
2021/05/04 03:28:11;;;;;;;2.30;2.20;;;6.10;99.90;;;;;;5074737;28;20405;-60
2021/05/04 03:30:37;;;;;;;2.03;1.93;;;6.10;99.90;;;;;;5074805;28;20437;-57
2021/05/04 03:33:03;;;;;;;2.17;2.07;;;6.10;99.90;;;;;;5074667;28;20448;-58
2021/05/04 03:35:28;;;;;;;2.37;2.17;;;6.10;99.90;;;;;;5074837;28;20492;-58
2021/05/04 03:37:54;;;;;;;2.47;2.10;;;6.10;99.90;;;;;;5074560;28;20496;-58
2021/05/04 03:40:20;;;;;;;2.10;2.00;;;6.10;99.90;;;;;;5074387;28;20206;-58
2021/05/04 03:42:45;;;;;;;2.00;1.90;;;6.20;99.90;;;;;;5074653;28;20182;-60
2021/05/04 03:45:12;;;;;;;3.07;2.50;;;6.20;99.90;;;;;;5074670;28;20655;-57
2021/05/04 03:47:42;;;;;;;2.90;2.20;;;6.10;99.90;;;;;;5074580;28;20175;-58
2021/05/04 03:50:13;;;;;;;2.77;2.57;;;6.20;99.90;;;;;;5074447;28;20869;-57
2021/05/04 03:52:39;;;;;;;3.30;2.63;;;6.20;99.90;;;;;;5074507;28;20463;-57
2021/05/04 03:55:05;;;;;;;2.50;2.40;;;6.20;99.90;;;;;;5074508;28;20781;-54
2021/05/04 03:57:31;;;;;;;3.00;2.80;;;6.10;99.90;;;;;;5074330;28;20259;-57
2021/05/04 03:59:58;;;;;;;2.70;2.50;;;6.10;99.90;;;;;;5073877;28;20512;-58
2021/05/04 04:02:24;;;;;;;3.90;2.33;;;6.20;99.90;;;;;;5074251;28;20237;-58
2021/05/04 04:04:49;;;;;;;2.03;1.93;;;6.20;99.90;;;;;;5074571;28;20417;-57
2021/05/04 04:07:15;;;;;;;2.60;2.40;;;6.20;99.90;;;;;;5074332;28;20638;-55
2021/05/04 04:09:41;;;;;;;2.73;2.40;;;6.10;99.90;;;;;;5073966;28;20437;-57
2021/05/04 04:12:07;;;;;;;2.17;2.07;;;6.10;99.90;;;;;;5073932;28;20554;-58
2021/05/04 04:14:33;;;;;;;6.17;2.30;;;6.10;99.90;;;;;;5074017;28;20166;-56
2021/05/04 04:16:58;;;;;;;3.43;2.13;;;6.10;99.90;;;;;;5074139;28;20402;-55
2021/05/04 04:19:24;;;;;;;2.23;2.00;;;6.20;99.90;;;;;;5073660;28;20178;-55
2021/05/04 04:21:50;;;;;;;2.20;2.10;;;6.20;99.90;;;;;;5074036;28;20278;-58
2021/05/04 04:24:16;;;;;;;2.60;2.40;;;6.20;99.90;;;;;;5073904;28;20171;-60
2021/05/04 04:26:42;;;;;;;2.07;1.60;;;6.20;99.90;;;;;;5073991;28;20171;-57
2021/05/04 04:29:08;;;;;;;2.23;2.03;;;6.20;99.90;;;;;;5073401;28;20406;-56
2021/05/04 04:31:34;;;;;;;1.97;1.87;;;6.20;99.90;;;;;;5073623;28;20487;-57
2021/05/04 04:33:59;;;;;;;1.70;1.60;;;6.20;99.90;;;;;;5073800;28;20171;-57
2021/05/04 04:36:25;;;;;;;2.13;2.00;;;6.20;99.90;;;;;;5073790;28;20178;-57
2021/05/04 04:38:50;;;;;;;2.60;2.37;;;6.30;99.90;;;;;;5073354;28;20384;-57
2021/05/04 04:41:16;;;;;;;2.83;2.00;;;6.30;99.90;;;;;;5073734;28;20554;-54
2021/05/04 04:43:42;;;;;;;2.30;2.10;;;6.30;99.90;;;;;;5073418;28;20176;-57
2021/05/04 04:46:08;;;;;;;2.00;1.90;;;6.30;99.90;;;;;;5073537;28;20449;-58
2021/05/04 04:48:33;;;;;;;1.90;1.80;;;6.30;99.90;;;;;;5073071;28;20187;-57
2021/05/04 04:50:59;;;;;;;1.90;1.80;;;6.30;99.90;;;;;;5073447;28;20277;-56
2021/05/04 04:53:24;;;;;;;2.10;2.00;;;6.30;99.90;;;;;;5073224;28;20207;-59
2021/05/04 04:55:50;;;;;;;2.50;2.30;;;6.30;99.90;;;;;;5073376;28;20678;-58
2021/05/04 04:58:15;;;;;;;1.93;1.83;;;6.40;99.90;;;;;;5072764;28;20270;-56
2021/05/04 05:00:41;;;;;;;2.43;2.23;;;6.30;99.90;;;;;;5073196;28;20194;-57
2021/05/04 05:03:07;;;;;;;2.07;1.97;;;6.40;99.90;;;;;;5073335;28;20182;-57
2021/05/04 05:05:32;;;;;;;2.50;2.30;;;6.30;99.90;;;;;;5073142;28;20679;-58
2021/05/04 05:07:58;;;;;;;2.70;2.50;;;6.30;99.90;;;;;;5072454;28;20180;-55
2021/05/04 05:10:23;;;;;;;2.10;2.00;;;6.40;99.90;;;;;;5072704;28;20198;-56
2021/05/04 05:12:49;;;;;;;2.50;2.30;;;6.40;99.90;;;;;;5071606;28;20203;-57
2021/05/04 05:15:15;;;;;;;2.80;2.60;;;6.40;99.90;;;;;;5072923;28;20258;-58
2021/05/04 05:17:40;;;;;;;4.37;2.60;;;6.40;99.90;;;;;;5073254;28;20176;-58
2021/05/04 05:20:07;;;;;;;2.20;2.07;;;6.40;99.90;;;;;;5072405;28;20175;-57
2021/05/04 05:22:33;;;;;;;2.27;2.17;;;6.50;99.90;;;;;;5072681;28;20421;-58
2021/05/04 05:24:59;;;;;;;2.17;1.90;;;6.50;99.90;;;;;;5072691;28;20405;-58
2021/05/04 05:27:26;;;;;;;1.87;1.77;;;6.60;99.90;;;;;;5072725;28;20483;-59
2021/05/04 05:29:51;;;;;;;1.73;1.63;;;6.60;99.90;;;;;;5072227;28;20409;-57
2021/05/04 05:32:17;;;;;;;2.03;1.80;;;6.60;99.90;;;;;;5072692;28;20555;-59
2021/05/04 05:34:43;;;;;;;3.17;1.93;;;6.60;99.90;;;;;;5072507;28;20171;-57
2021/05/04 05:37:12;;;;;;;1.80;1.70;;;6.60;99.90;;;;;;5072518;28;20178;-57
2021/05/04 05:39:42;;;;;;;2.50;1.93;;;6.60;99.90;;;;;;5072077;28;20840;-57
2021/05/04 05:42:11;;;;;;;2.00;1.90;;;6.60;99.90;;;;;;5072246;28;20433;-59
2021/05/04 05:44:36;;;;;;;2.13;1.93;;;6.60;99.90;;;;;;5072380;28;20410;-56
2021/05/04 05:47:02;;;;;;;2.13;2.00;;;6.60;99.90;;;;;;5072474;28;20460;-56
2021/05/04 05:49:28;;;;;;;2.17;2.07;;;6.60;99.90;;;;;;5071767;28;20440;-57
2021/05/04 05:51:54;;;;;;;2.00;1.90;;;6.70;99.90;;;;;;5072179;28;20206;-55
2021/05/04 05:54:19;;;;;;;3.83;2.07;;;6.80;99.90;;;;;;5072237;28;20195;-56
2021/05/04 05:56:45;;;;;;;2.13;2.03;;;6.80;99.90;;;;;;5072102;28;20167;-57
2021/05/04 05:59:10;;;;;;;3.53;2.00;;;6.80;99.90;;;;;;5071774;28;20248;-56
2021/05/04 06:01:36;;;;;;;5.23;2.13;;;6.90;99.90;;;;;;5072238;28;20585;-59
2021/05/04 06:04:02;;;;;;;2.90;2.20;;;6.90;99.90;;;;;;5072040;28;20246;-56
2021/05/04 06:06:27;;;;;;;2.73;1.80;;;6.80;99.90;;;;;;5071082;28;20173;-62
2021/05/04 06:08:53;;;;;;;2.13;1.97;;;6.90;99.90;;;;;;5070590;28;20175;-61
2021/05/04 06:11:18;;;;;;;2.10;1.80;;;6.90;99.90;;;;;;5071817;28;20188;-63
2021/05/04 06:13:44;;;;;;;1.90;1.80;;;6.90;99.90;;;;;;5071850;28;20199;-62
2021/05/04 06:16:10;;;;;;;1.80;1.70;;;6.90;99.90;;;;;;5071933;28;20174;-60
2021/05/04 06:18:35;;;;;;;2.30;1.83;;;7.00;99.90;;;;;;5070667;28;20427;-62
2021/05/04 06:21:01;;;;;;;2.17;2.07;;;7.00;99.90;;;;;;5071721;28;20249;-62
2021/05/04 06:23:27;;;;;;;1.37;1.30;;;7.10;99.90;;;;;;5071926;28;20179;-62
2021/05/04 06:25:52;;;;;;;1.60;1.50;;;7.00;99.90;;;;;;5071684;28;20532;-58
2021/05/04 06:28:18;;;;;;;2.30;2.10;;;7.10;99.90;;;;;;5072407;28;20175;-63
2021/05/04 06:30:43;;;;;;;1.50;1.50;;;7.10;99.90;;;;;;5071639;28;20195;-63
2021/05/04 06:33:11;;;;;;;1.60;1.50;;;7.20;99.90;;;;;;5071704;28;20199;-62
2021/05/04 06:35:39;;;;;;;2.17;1.70;;;7.30;99.90;;;;;;5071791;28;20209;-63
2021/05/04 06:38:06;;;;;;;3.13;2.00;;;7.30;99.90;;;;;;5071599;28;20414;-61
2021/05/04 06:40:32;;;;;;;1.97;1.87;;;7.30;99.90;;;;;;5071278;28;20417;-61
2021/05/04 06:42:58;;;;;;;3.93;3.63;;;7.40;99.90;;;;;;5071616;28;20405;-54
2021/05/04 06:45:25;;;;;;;4.07;3.77;;;7.80;99.90;;;;;;5071815;28;20490;-58
2021/05/04 06:47:50;;;;;;;5.07;4.60;;;9.20;99.90;;;;;;5071592;28;20420;-59
2021/05/04 06:50:16;;;;;;;2.63;1.80;;;9.80;99.90;;;;;;5071455;28;20444;-62
2021/05/04 06:52:42;;;;;;;1.30;1.30;;;10.30;96.30;;;;;;5071642;28;20203;-62
2021/05/04 06:55:08;;;;;;;1.70;1.33;;;9.30;98.40;;;;;;5071426;28;20164;-61
2021/05/04 06:57:33;;;;;;;1.40;1.30;;;8.80;99.70;;;;;;5071593;28;20175;-62
2021/05/04 06:59:59;;;;;;;1.50;1.40;;;8.40;99.90;;;;;;5070943;28;20430;-61
2021/05/04 07:02:24;;;;;;;1.60;1.50;;;8.20;99.90;;;;;;5071352;28;20192;-62
2021/05/04 07:04:50;;;;;;;2.43;1.60;;;8.10;99.90;;;;;;5071393;28;20167;-62
2021/05/04 07:07:16;;;;;;;1.93;1.83;;;8.10;99.90;;;;;;5071477;28;20219;-62
2021/05/04 07:09:42;;;;;;;2.27;2.17;;;8.10;99.90;;;;;;5070855;28;20175;-62
2021/05/04 07:12:07;;;;;;;1.87;1.77;;;8.10;99.90;;;;;;5071471;28;20211;-60
2021/05/04 07:14:33;;;;;;;1.57;1.50;;;8.10;99.90;;;;;;5071685;28;20403;-63
2021/05/04 07:17:02;;;;;;;1.83;1.47;;;8.10;99.90;;;;;;5071286;28;20405;-62
2021/05/04 07:19:28;;;;;;;1.33;1.30;;;8.10;99.90;;;;;;5070989;28;20172;-64
2021/05/04 07:21:55;;;;;;;2.07;1.97;;;8.10;99.90;;;;;;5071122;28;20430;-65
2021/05/04 07:24:21;;;;;;;2.47;2.17;;;8.10;99.90;;;;;;5071231;28;20500;-65
2021/05/04 07:26:46;;;;;;;1.67;1.57;;;8.20;99.90;;;;;;5071307;28;20476;-65
2021/05/04 07:29:12;;;;;;;2.03;1.93;;;8.30;99.90;;;;;;5070901;28;20190;-64
2021/05/04 07:31:37;;;;;;;1.37;1.30;;;8.50;99.90;;;;;;5073892;28;20191;-63
2021/05/04 07:34:03;;;;;;;1.60;1.50;;;8.40;99.90;;;;;;5074967;28;20648;-63
2021/05/04 07:36:32;;;;;;;1.47;1.40;;;8.50;99.90;;;;;;5074798;28;20175;-63
2021/05/04 07:38:58;;;;;;;1.80;1.70;;;8.50;99.90;;;;;;5074311;28;20415;-64
2021/05/04 07:41:24;;;;;;;1.73;1.63;;;8.50;99.90;;;;;;5074590;28;20428;-63
2021/05/04 07:43:50;;;;;;;1.73;1.40;;;8.40;99.90;;;;;;5074839;28;20414;-63
2021/05/04 07:46:15;;;;;;;4.70;2.53;;;8.40;99.90;;;;;;5074567;28;20642;-63
2021/05/04 07:48:41;;;;;;;1.40;1.40;;;8.30;99.90;;;;;;5074222;28;20182;-63
2021/05/04 07:51:08;;;;;;;2.10;1.50;;;8.30;99.90;;;;;;5074486;28;20426;-63
2021/05/04 07:53:33;;;;;;;1.50;1.40;;;8.40;99.90;;;;;;5074391;28;20211;-63
2021/05/04 07:55:59;;;;;;;2.07;1.97;;;8.40;99.90;;;;;;5074448;28;20829;-64
2021/05/04 07:58:25;;;;;;;2.10;2.00;;;8.40;99.90;;;;;;5074003;28;20183;-60
2021/05/04 08:00:50;;;;;;;2.07;1.97;;;8.40;99.90;;;;;;5074392;28;20191;-60
2021/05/04 08:03:16;;;;;;;2.40;2.20;;;8.40;99.90;;;;;;5074389;28;20659;-60
2021/05/04 08:05:42;;;;;;;2.83;2.07;;;8.40;99.90;;;;;;5074187;28;20189;-60
2021/05/04 08:08:11;;;;;;;2.00;1.80;;;8.40;99.90;;;;;;5073856;28;20184;-62
2021/05/04 08:10:37;;;;;;;1.57;1.57;;;8.40;99.90;;;;;;5074588;28;20286;-61
2021/05/04 08:13:04;;;;;;;1.93;1.83;;;8.50;99.90;;;;;;5074005;28;20588;-62
2021/05/04 08:15:29;;;;;;;3.33;2.10;;;8.60;99.90;;;;;;5074251;28;20195;-62
2021/05/04 08:17:57;;;;;;;3.33;1.77;;;8.60;99.90;;;;;;5073906;28;20513;-61
2021/05/04 08:20:27;;;;;;;1.83;1.73;;;8.60;99.90;;;;;;5073641;28;20195;-61
2021/05/04 08:22:53;;;;;;;2.53;1.70;;;8.70;99.90;;;;;;5074157;28;20454;-61
2021/05/04 08:25:19;;;;;;;2.70;2.17;;;8.80;99.90;;;;;;5074167;28;20491;-62
2021/05/04 08:27:45;;;;;;;6.40;2.67;;;8.80;99.90;;;;;;5073875;28;20188;-62
2021/05/04 08:30:11;;;;;;;5.70;2.60;;;8.70;99.90;;;;;;5073599;28;20894;-62
2021/05/04 08:32:37;;;;;;;2.53;2.00;;;8.60;99.90;;;;;;5073710;28;20210;-62
2021/05/04 08:35:03;;;;;;;6.00;2.10;;;8.60;99.90;;;;;;5074183;28;20406;-62
2021/05/04 08:37:28;;;;;;;2.20;1.90;;;8.70;99.90;;;;;;5073676;28;20167;-62
2021/05/04 08:39:54;;;;;;;2.63;2.43;;;8.90;99.90;;;;;;5073309;28;20168;-62
2021/05/04 08:42:19;;;;;;;3.67;2.10;;;8.90;99.90;;;;;;5072661;28;20195;-62
2021/05/04 08:44:50;;;;;;;2.23;2.03;;;9.00;99.90;;;;;;5073685;28;20575;-63
2021/05/04 08:47:17;;;;;;;1.40;1.30;;;9.00;99.90;;;;;;5073530;28;20178;-63
2021/05/04 08:49:43;;;;;;;1.47;1.37;;;9.20;99.90;;;;;;5073041;28;20407;-62
2021/05/04 08:52:09;;;;;;;2.33;2.13;;;9.20;99.90;;;;;;5073241;28;20519;-62
2021/05/04 08:54:34;;;;;;;1.73;1.60;;;9.30;99.90;;;;;;5073381;28;20165;-62
2021/05/04 08:57:00;;;;;;;1.77;1.67;;;9.30;99.90;;;;;;5073380;28;20182;-62
2021/05/04 08:59:25;;;;;;;4.30;1.90;;;9.20;99.90;;;;;;5072928;28;20191;-62
2021/05/04 09:01:51;;;;;;;2.90;1.80;;;9.30;99.90;;;;;;5073074;28;20216;-63
2021/05/04 09:04:44;;;;;;;2.30;2.10;;;9.10;99.90;;;;;;5073106;28;20669;-62
2021/05/04 09:07:38;;;;;;;2.13;2.03;;;9.30;99.90;;;;;;5073256;28;20201;-63
2021/05/04 09:12:44;;;;;;;2.00;1.90;;;9.30;99.90;;;;;;5072853;28;20493;-62
2021/05/04 09:16:14;;;;;;;2.00;1.90;;;9.40;99.90;;;;;;5073030;28;20495;-62
2021/05/04 09:21:14;;;;;;;3.63;1.90;;;9.70;99.90;;;;;;5073166;28;20449;-63
2021/05/04 09:23:41;;;;;;;1.80;1.70;;;9.70;99.90;;;;;;5073626;28;20402;-63
2021/05/04 09:26:18;;;;;;;1.60;1.50;;;9.60;99.90;;;;;;5072893;28;20498;-66
2021/05/04 09:28:48;;;;;;;1.63;1.53;;;9.40;99.90;;;;;;5072415;28;20823;-65
2021/05/04 09:31:21;;;;;;;1.77;1.53;;;9.30;99.90;;;;;;5072530;28;20444;-62
2021/05/04 09:33:47;;;;;;;3.40;2.03;;;9.30;99.90;;;;;;5073137;28;20488;-65
2021/05/04 09:36:39;;;;;;;1.97;1.80;;;9.40;99.90;;;;;;5072894;28;20437;-64
2021/05/04 09:39:06;;;;;;;2.13;1.93;;;9.80;99.90;;;;;;5072142;28;20184;-63
2021/05/04 09:41:32;;;;;;;2.87;2.67;;;9.90;99.90;;;;;;5072431;28;20487;-63
2021/05/04 09:43:58;;;;;;;3.20;2.80;;;10.20;99.90;;;;;;5072272;28;20493;-65
2021/05/04 09:46:51;;;;;;;3.37;3.17;;;10.30;99.90;;;;;;5072955;28;20895;-63
2021/05/04 09:49:32;;;;;;;4.63;2.30;;;10.40;99.90;;;;;;5073386;28;20171;-64
2021/05/04 09:52:17;;;;;;;2.60;1.83;;;10.30;99.90;;;;;;5072499;28;20944;-64
2021/05/04 09:54:45;;;;;;;2.80;2.20;;;10.60;99.90;;;;;;5071983;28;21095;-64
2021/05/04 09:57:29;;;;;;;1.70;1.60;;;10.90;99.90;;;;;;5072464;28;20420;-64
2021/05/04 09:59:55;;;;;;;2.23;2.03;;;11.10;99.30;;;;;;5071620;28;20456;-64
2021/05/04 10:02:22;;;;;;;2.50;1.90;;;11.30;98.90;;;;;;5072081;28;20913;-64
2021/05/04 10:04:52;;;;;;;2.87;1.80;;;11.20;98.40;;;;;;5071969;28;20182;-64
2021/05/04 10:07:22;;;;;;;3.73;2.47;;;11.00;98.90;;;;;;5072456;28;20439;-64
2021/05/04 10:09:49;;;;;;;2.40;2.10;;;10.60;99.00;;;;;;5071696;28;20412;-63
2021/05/04 10:12:17;;;;;;;1.83;1.73;;;10.40;99.70;;;;;;5071881;28;20456;-61
2021/05/04 10:14:44;;;;;;;4.03;2.30;;;10.40;99.90;;;;;;5071893;28;20402;-62
2021/05/04 10:17:10;;;;;;;2.17;1.60;;;10.40;99.90;;;;;;5072008;28;20412;-65
2021/05/04 10:19:37;;;;;;;1.93;1.83;;;10.40;99.90;;;;;;5071675;28;20410;-65
2021/05/04 10:22:04;;;;;;;2.50;2.30;;;10.50;99.90;;;;;;5071843;28;20194;-64
2021/05/04 10:24:33;;;;;;;2.00;1.90;;;10.60;99.90;;;;;;5071847;28;20459;-65
2021/05/04 10:27:03;;;;;;;4.87;2.60;;;10.70;99.20;;;;;;5071873;28;20493;-66
2021/05/04 10:29:30;;;;;;;2.50;2.00;;;11.00;98.10;;;;;;5072398;28;20428;-67
2021/05/04 10:31:58;;;;;;;4.10;2.53;;;11.20;95.40;;;;;;5072629;28;20432;-68
2021/05/04 10:34:24;;;;;;;15.00;4.37;;;11.40;96.20;;;;;;5072007;28;20496;-64
2021/05/04 10:37:23;;;;;;;3.10;2.03;;;11.40;94.90;;;;;;5071824;28;20481;-63
2021/05/04 10:39:48;;;;;;;2.30;1.73;;;11.10;97.00;;;;;;5072490;28;20437;-64
2021/05/04 10:42:36;;;;;;;6.40;2.60;;;10.80;98.90;;;;;;5073477;28;20425;-64
2021/05/04 10:45:01;;;;;;;4.33;2.00;;;10.60;99.00;;;;;;5071696;28;20174;-64
2021/05/04 10:47:39;;;;;;;4.33;3.33;;;10.80;99.90;;;;;;5071576;28;20402;-66
2021/05/04 10:50:09;;;;;;;3.67;2.17;;;11.10;99.90;;;;;;5071132;28;20171;-64
2021/05/04 10:52:55;;;;;;;5.07;2.53;;;11.70;99.90;;;;;;5071642;28;20493;-65
2021/05/04 10:55:23;;;;;;;5.40;3.70;;;12.20;98.10;;;;;;5071747;28;20405;-64
2021/05/04 10:58:01;;;;;;;8.07;2.37;;;12.90;96.00;;;;;;5072420;28;20397;-66
2021/05/04 11:00:48;;;;;;;4.40;2.40;;;13.40;96.40;;;;;;5072098;28;20429;-65
2021/05/04 11:03:32;;;;;;;4.50;1.80;;;14.00;94.50;;;;;;5072810;28;20391;-65
2021/05/04 11:06:02;;;;;;;7.47;2.27;;;14.60;93.70;;;;;;5073401;28;20421;-63
2021/05/04 11:08:47;;;;;;;3.63;1.63;;;14.70;90.60;;;;;;5076667;28;20919;-65
2021/05/04 11:14:03;;;;;;;3.30;2.30;;;13.70;87.80;;;;;;5078247;28;20444;-64
2021/05/04 11:16:48;;;;;;;4.27;2.23;;;13.90;90.50;;;;;;5076411;28;20453;-66
2021/05/04 11:19:30;;;;;;;3.37;2.30;;;14.20;88.20;;;;;;5076259;28;20401;-65
2021/05/04 11:21:59;;;;;;;3.50;2.00;;;14.30;84.20;;;;;;5075036;28;20504;-65
2021/05/04 11:24:34;;;;;;;4.97;2.53;;;14.30;82.50;;;;;;5075097;28;20401;-65
2021/05/04 11:27:18;;;;;;;4.93;2.90;;;14.10;79.40;;;;;;5075101;28;20397;-64
2021/05/04 11:29:47;;;;;;;2.67;1.93;;;13.70;78.10;;;;;;5074580;28;20428;-62
2021/05/04 11:32:18;;;;;;;5.20;2.00;;;13.90;79.50;;;;;;5074704;28;20453;-62
2021/05/04 11:34:59;;;;;;;3.17;1.87;;;14.10;77.80;;;;;;5075062;28;20825;-63
2021/05/04 11:37:27;;;;;;;3.60;2.27;;;13.80;76.80;;;;;;5075054;28;20492;-65
2021/05/04 11:39:59;;;;;;;4.83;2.03;;;14.50;78.90;;;;;;5075004;28;20484;-64
2021/05/04 11:42:30;;;;;;;3.40;2.40;;;14.80;76.00;;;;;;5074643;28;20430;-67
2021/05/04 11:45:12;;;;;;;5.40;2.27;;;14.60;74.30;;;;;;5074889;28;20405;-64
2021/05/04 11:47:40;;;;;;;5.70;2.77;;;15.10;74.80;;;;;;5074708;28;20414;-64
2021/05/04 11:50:26;;;;;;;5.07;2.00;;;15.10;74.30;;;;;;5074032;28;20502;-64
2021/05/04 11:53:01;;;;;;;4.07;2.77;;;15.10;72.90;;;;;;5074387;28;20445;-64
2021/05/04 11:55:32;;;;;;;3.00;2.20;;;14.80;74.10;;;;;;5074835;28;20436;-65
2021/05/04 11:58:00;;;;;;;4.17;2.47;;;14.50;68.80;;;;;;5074768;28;20397;-64
2021/05/04 12:00:27;;;;;;;7.00;2.57;;;14.40;72.60;;;;;;5074708;28;20429;-65
2021/05/04 12:02:53;;;;;;;7.43;1.93;;;14.40;72.80;;;;;;5076009;28;20424;-65
2021/05/04 12:05:30;;;;;;;7.53;3.60;;;14.00;72.90;;;;;;5074782;28;20401;-65
2021/05/04 12:07:57;;;;;;;10.40;2.60;;;13.80;74.20;;;;;;5074684;28;20488;-64
2021/05/04 12:10:27;;;;;;;6.30;3.20;;;14.40;76.60;;;;;;5074068;28;20418;-64
2021/05/04 12:13:05;;;;;;;5.33;2.10;;;14.40;72.90;;;;;;5074178;28;20448;-64
2021/05/04 12:15:38;;;;;;;4.20;2.63;;;14.50;71.40;;;;;;5074312;28;20809;-64
2021/05/04 12:18:12;;;;;;;4.90;2.13;;;14.30;70.50;;;;;;5072519;28;20767;-63
2021/05/04 12:20:42;;;;;;;6.60;2.60;;;14.10;69.30;;;;;;5074082;28;20417;-64
2021/05/04 12:23:10;;;;;;;7.43;3.77;;;14.50;69.00;;;;;;5074225;28;20742;-64
2021/05/04 12:25:38;;;;;;;3.50;2.40;;;14.80;65.70;;;;;;5073981;28;20402;-64
2021/05/04 12:28:12;;;;;;;4.27;2.50;;;15.30;66.40;;;;;;5074549;28;20436;-64
2021/05/04 12:30:37;;;;;;;3.70;1.90;;;15.90;67.70;;;;;;5074276;28;20423;-64
2021/05/04 12:33:03;;;;;;;6.07;2.70;;;15.30;66.00;;;;;;5073716;28;20536;-65
2021/05/04 12:35:35;;;;;;;2.70;2.37;;;15.20;65.90;;;;;;5073829;28;20647;-64
2021/05/04 12:38:08;;;;;;;7.03;2.10;;;15.00;66.60;;;;;;5073661;28;20402;-64
2021/05/04 12:40:37;;;;;;;9.10;2.40;;;15.40;66.50;;;;;;5073483;28;20926;-64
2021/05/04 12:43:15;;;;;;;3.30;2.20;;;15.10;66.40;;;;;;5073524;28;20599;-65
2021/05/04 12:46:07;;;;;;;3.67;2.00;;;15.30;65.90;;;;;;5073862;28;20412;-64
2021/05/04 12:48:33;;;;;;;3.20;2.20;;;15.90;64.30;;;;;;5073347;28;20463;-64
2021/05/04 12:51:24;;;;;;;4.40;2.20;;;16.80;67.30;;;;;;5073470;28;20854;-64
2021/05/04 12:53:50;;;;;;;5.77;1.90;;;16.80;60.50;;;;;;5072885;28;20465;-65
2021/05/04 12:56:18;;;;;;;5.03;2.13;;;16.40;59.90;;;;;;5073348;28;20759;-65
2021/05/04 12:59:04;;;;;;;6.70;2.40;;;16.40;60.30;;;;;;5072846;28;20433;-64
2021/05/04 13:01:48;;;;;;;3.33;2.40;;;16.10;59.00;;;;;;5073185;28;20429;-65
2021/05/04 13:06:54;;;;;;;3.60;1.53;;;15.20;58.00;;;;;;5073177;28;20769;-64
2021/05/04 13:29:25;;;;;;;3.33;2.47;;;17.30;57.60;;;;;;5072099;28;20825;-64